Latest Weather Observations for Mackay Airport

IDQ60801

Issued at 6:32 pm EST Saturday 16 October 2021 (issued every 10 minutes, with the page automatically refreshed every 10 minutes)

About weather observations | Map of weather stations | Latest weather observations for QLD | Other Formats
Station Details ID: 033045 Name: MACKAY AERO Lat: -21.17 Lon: 149.18 Height: 5.3 m
Data from the previous 72 hours. | See also: Recent months at Mackay Airport
Date/Time
EST
Temp
°C
App
Temp
°C
Dew
Point
°C
Rel
Hum
%
Delta-T
°C
Wind Press
QNH
hPa
Press
MSL
hPa
Rain since
9am
mm
Dir  Spd
km/h
Gust
km/h
Spd
kts
Gust
kts
16/06:30pm 23.5 23.0 15.0 59 5.1 NNE 11 13 6 7 1010.6 1010.6 0.0
16/06:00pm 24.7 24.1 15.6 57 5.5 NNE 13 19 7 10 1010.1 1010.1 0.0
16/05:30pm 25.7 24.4 14.8 51 6.5 NE 15 20 8 11 1009.7 1009.7 0.0
16/05:00pm 26.5 24.0 13.6 45 7.6 ENE 19 22 10 12 1009.2 1009.2 0.0
16/04:30pm 27.0 25.0 15.4 49 7.1 ENE 20 26 11 14 1009.0 1009.0 0.0
16/04:00pm 27.8 24.9 13.0 40 8.7 ENE 20 26 11 14 1008.6 1008.6 0.0
16/03:30pm 28.3 25.1 11.8 36 9.5 ENE 20 28 11 15 1008.6 1008.6 0.0
16/03:00pm 29.0 24.5 8.7 28 11.2 ENE 22 28 12 15 1008.8 1008.8 0.0
16/02:30pm 28.3 23.6 9.1 30 10.6 NE 24 30 13 16 1009.1 1009.1 0.0
16/02:00pm 29.3 24.5 10.4 31 10.7 ENE 26 32 14 17 1009.1 1009.1 0.0
16/01:30pm 28.7 23.1 7.3 26 11.5 ENE 26 35 14 19 1009.4 1009.4 0.0
16/01:00pm 29.1 24.2 11.2 33 10.3 E 28 35 15 19 1009.8 1009.8 0.0
16/12:30pm 29.0 23.8 8.7 28 11.2 E 26 33 14 18 1010.3 1010.3 0.0
16/12:00pm 29.5 24.3 10.1 30 11.0 E 28 33 15 18 1010.7 1010.7 0.0
16/11:30am 30.3 26.0 9.2 27 11.8 E 22 32 12 17 1011.3 1011.3 0.0
16/11:00am 29.6 24.5 7.5 25 12.0 E 24 30 13 16 1011.7 1011.7 0.0
16/10:30am 30.8 27.1 0.2 14 14.7 WSW 9 17 5 9 1012.2 1012.2 0.0
16/10:00am 29.9 24.9 -1.5 13 14.6 SSW 15 24 8 13 1012.6 1012.6 0.0
16/09:30am 29.6 23.9 -0.7 14 14.2 S 19 30 10 16 1012.8 1012.8 0.0
16/09:00am 28.7 23.4 2.1 18 13.1 SSW 19 24 10 13 1013.0 1013.0 0.2
16/08:30am 26.7 24.1 6.2 27 10.7 S 9 13 5 7 1013.1 1013.1 0.2
16/08:00am 25.1 23.0 8.1 34 9.1 S 9 13 5 7 1013.0 1013.0 0.2
16/07:30am 22.4 21.5 11.2 49 6.2 S 7 7 4 4 1012.7 1012.7 0.2
16/07:00am 20.0 20.6 15.4 75 2.7 SSW 6 7 3 4 1012.5 1012.5 0.2
16/06:30am 18.0 20.6 17.4 96 0.4 CALM 0 0 0 0 1012.1 1012.1 0.2
16/06:00am 17.0 17.9 16.5 97 0.3 WSW 7 9 4 5 1011.8 1011.8 0.2
16/05:42am 17.6 20.1 17.3 98 0.2 CALM 0 0 0 0 1011.6 1011.6 0.2
16/05:30am 18.1 20.8 17.8 98 0.2 CALM 0 0 0 0 1011.3 1011.3 0.0
16/05:10am 17.1 18.6 16.6 97 0.3 WSW 4 6 2 3 1011.2 1011.2 0.0
16/05:09am 16.9 18.3 16.4 97 0.3 WSW 4 6 2 3 1011.2 1011.2 0.0
16/05:00am 17.3 18.5 16.8 97 0.3 WSW 6 7 3 4 1011.0 1011.0 0.0
16/04:44am 17.7 19.0 17.2 97 0.3 WSW 6 7 3 4 1010.8 1010.8 0.0
16/04:30am 18.8 20.1 18.5 98 0.2 SW 9 9 5 5 1010.7 1010.7 0.0
16/04:22am 18.4 19.5 18.1 98 0.2 SW 9 11 5 6 1010.5 1010.5 0.0
16/04:00am 18.1 19.0 17.5 96 0.4 SSW 9 11 5 6 1010.3 1010.3 0.0
16/03:30am 18.4 19.7 17.6 95 0.5 W 7 9 4 5 1010.2 1010.2 0.0
16/03:00am 20.1 21.8 19.4 96 0.4 W 9 13 5 7 1010.1 1010.1 0.0
16/02:30am 21.2 23.5 20.7 97 0.3 W 9 11 5 6 1010.1 1010.1 0.0
16/02:13am 20.4 22.7 19.9 97 0.3 WNW 7 9 4 5 1010.2 1010.2 0.0
16/02:00am 21.0 23.6 20.5 97 0.3 W 7 9 4 5 1010.4 1010.4 0.0
16/01:59am 20.9 23.7 20.4 97 0.3 W 6 9 3 5 1010.4 1010.4 0.0
16/01:50am 20.8 23.9 20.3 97 0.3 WNW 4 6 2 3 1010.5 1010.5 0.0
16/01:40am 20.2 22.9 19.5 96 0.4 WNW 4 6 2 3 1010.5 1010.5 0.0
16/01:30am 19.6 21.5 18.6 94 0.6 WNW 6 7 3 4 1010.6 1010.6 0.0
16/01:29am 19.9 22.1 19.1 95 0.5 WNW 6 7 3 4 1010.5 1010.5 0.0
16/01:26am 20.7 23.1 20.0 96 0.4 WNW 7 7 4 4 1010.5 1010.5 0.0
16/01:00am 21.0 24.0 20.0 94 0.6 W 4 7 2 4 1010.6 1010.6 0.0
16/12:30am 21.9 24.2 20.7 93 0.8 WNW 9 11 5 6 1010.8 1010.8 0.0
16/12:00am 22.6 25.7 21.4 93 0.8 WNW 7 9 4 5 1011.0 1011.0 0.0
 
Date/Time
EST
Temp
°C
App
Temp
°C
Dew
Point
°C
Rel
Hum
%
Delta-T
°C
Wind Press
QNH
hPa
Press
MSL
hPa
Rain since
9am
mm
Dir  Spd
km/h
Gust
km/h
Spd
kts
Gust
kts
15/11:30pm 23.0 25.5 21.1 89 1.2 WSW 9 13 5 7 1011.2 1011.2 0.0
15/11:28pm 23.0 25.4 20.9 88 1.4 W 9 15 5 8 1011.2 1011.2 0.0
15/11:10pm 23.7 26.6 22.5 93 0.8 W 11 15 6 8 1011.4 1011.4 0.0
15/11:00pm 23.7 27.7 22.1 91 1.1 NW 4 7 2 4 1011.1 1011.1 0.0
15/10:30pm 24.1 27.2 22.2 89 1.3 NW 9 13 5 7 1010.8 1010.8 0.0
15/10:00pm 24.4 26.6 21.9 86 1.7 NW 13 15 7 8 1010.6 1010.6 0.0
15/09:30pm 25.0 26.9 22.1 84 1.9 NW 15 20 8 11 1010.5 1010.5 0.0
15/09:00pm 24.6 27.3 22.1 86 1.7 NW 11 17 6 9 1010.3 1010.3 0.0
15/08:30pm 25.3 27.7 23.0 87 1.6 NNW 15 24 8 13 1010.0 1010.0 0.0
15/08:00pm 25.6 27.0 22.9 85 1.8 NNW 20 30 11 16 1009.6 1009.6 0.0
15/07:30pm 25.6 26.0 22.5 83 2.1 NNW 24 35 13 19 1009.0 1009.0 0.0
15/07:00pm 25.9 26.8 22.6 82 2.2 NNW 22 30 12 16 1008.7 1008.7 0.0
15/06:30pm 26.2 28.1 22.1 78 2.7 NNW 15 24 8 13 1008.4 1008.4 0.0
15/06:00pm 26.8 26.7 22.2 76 3.1 NNW 26 33 14 18 1007.8 1007.8 0.0
15/05:30pm 27.4 26.6 21.7 71 3.8 N 28 35 15 19 1007.3 1007.3 0.0
15/05:00pm 28.2 26.5 18.9 57 6.0 NNW 26 39 14 21 1007.1 1007.1 0.0
15/04:58pm 28.4 27.1 19.9 60 5.6 NNW 26 33 14 18 1007.1 1007.1 0.0
15/04:30pm 28.6 25.4 21.1 64 5.0 N 39 50 21 27 1006.3 1006.3 0.0
15/04:00pm 29.4 26.1 21.6 63 5.2 N 41 54 22 29 1006.2 1006.2 0.0
15/03:30pm 30.2 28.7 22.1 62 5.5 N 33 44 18 24 1006.2 1006.2 0.0
15/03:00pm 30.0 27.6 21.9 62 5.5 N 37 50 20 27 1006.5 1006.5 0.0
15/02:30pm 31.0 28.6 21.8 58 6.2 N 37 46 20 25 1006.7 1006.7 0.0
15/02:00pm 30.6 28.2 21.1 57 6.4 N 35 44 19 24 1007.1 1007.1 0.0
15/01:30pm 31.2 29.8 22.2 58 6.1 N 33 43 18 23 1007.6 1007.6 0.0
15/01:00pm 30.4 28.6 21.2 58 6.2 N 32 43 17 23 1008.2 1008.2 0.0
15/12:30pm 31.3 30.1 21.5 56 6.6 N 30 39 16 21 1008.6 1008.6 0.0
15/12:00pm 31.2 30.7 22.2 58 6.1 N 28 37 15 20 1009.2 1009.2 0.0
15/11:30am 30.9 29.5 20.5 54 6.9 N 28 37 15 20 1009.6 1009.6 0.0
15/11:00am 30.7 29.8 21.5 58 6.2 N 28 41 15 22 1010.0 1010.0 0.0
15/10:30am 31.1 31.3 22.7 61 5.7 N 26 35 14 19 1010.2 1010.2 0.0
15/10:00am 30.0 29.9 21.4 60 5.8 NNW 24 35 13 19 1010.7 1010.7 0.0
15/09:30am 28.9 28.6 21.1 62 5.2 NNW 24 33 13 18 1011.2 1011.2 0.0
15/09:00am 29.3 29.2 21.5 63 5.2 NNW 24 37 13 20 1011.1 1011.1 0.4
15/08:30am 29.1 29.3 21.3 62 5.2 NNW 22 32 12 17 1011.5 1011.5 0.4
15/08:00am 27.6 27.8 22.1 72 3.7 NNW 24 32 13 17 1011.6 1011.6 0.4
15/07:30am 26.3 28.3 22.2 78 2.8 WNW 15 20 8 11 1011.9 1011.9 0.4
15/07:00am 25.3 28.0 22.2 83 2.1 WNW 11 15 6 8 1011.9 1011.9 0.4
15/06:30am 24.0 27.7 22.3 90 1.1 W 6 11 3 6 1011.1 1011.1 0.4
15/06:00am 22.2 25.6 21.0 93 0.8 NW 4 7 2 4 1010.7 1010.7 0.4
15/05:30am 22.2 24.2 20.7 91 1.0 NW 11 13 6 7 1010.3 1010.3 0.4
15/05:00am 22.6 24.4 21.1 91 1.0 WNW 13 13 7 7 1010.1 1010.1 0.4
15/04:30am 22.8 25.6 20.9 89 1.2 NNW 7 11 4 6 1009.6 1009.6 0.4
15/04:00am 22.9 24.9 20.8 88 1.4 NW 11 13 6 7 1009.4 1009.4 0.4
15/03:30am 23.3 24.8 21.2 88 1.4 NNW 15 19 8 10 1009.2 1009.2 0.4
15/03:00am 23.6 25.1 21.3 87 1.5 NNW 15 19 8 10 1008.9 1008.9 0.4
15/02:30am 23.6 25.4 21.9 90 1.1 NNW 15 19 8 10 1008.8 1008.8 0.4
15/02:00am 24.1 26.0 22.0 88 1.4 NNW 15 20 8 11 1009.0 1009.0 0.4
15/01:30am 24.2 25.3 21.9 87 1.5 NNW 19 28 10 15 1009.2 1009.2 0.4
15/01:00am 24.2 25.5 21.7 86 1.7 NNW 17 20 9 11 1009.4 1009.4 0.4
15/12:30am 24.3 25.0 21.6 85 1.8 NNW 20 28 11 15 1009.4 1009.4 0.4
15/12:00am 24.4 25.2 21.7 85 1.8 NNW 20 26 11 14 1009.6 1009.6 0.4
 
Date/Time
EST
Temp
°C
App
Temp
°C
Dew
Point
°C
Rel
Hum
%
Delta-T
°C
Wind Press
QNH
hPa
Press
MSL
hPa
Rain since
9am
mm
Dir  Spd
km/h
Gust
km/h
Spd
kts
Gust
kts
14/11:30pm 24.5 25.3 21.8 85 1.8 NNW 20 30 11 16 1009.5 1009.5 0.4
14/11:00pm 24.3 23.6 21.8 86 1.7 NNW 28 37 15 20 1009.6 1009.6 0.4
14/10:30pm 24.4 22.8 21.9 86 1.7 N 33 46 18 25 1009.7 1009.7 0.4
14/10:00pm 24.4 22.9 22.1 87 1.5 N 33 41 18 22 1009.8 1009.8 0.4
14/09:30pm 24.3 21.9 22.6 90 1.1 N 39 48 21 26 1009.6 1009.6 0.4
14/09:27pm 24.3 22.7 22.6 90 1.1 N 35 48 19 26 1009.7 1009.7 0.4
14/09:00pm 24.2 24.6 22.5 90 1.1 N 24 30 13 16 1011.2 1011.2 0.4
14/08:52pm 24.2 25.0 22.5 90 1.1 NNW 22 26 12 14 1011.3 1011.3 0.4
14/08:33pm 24.8 26.5 22.3 86 1.7 NW 17 24 9 13 1011.9 1011.9 0.0
14/08:30pm 25.0 26.7 22.3 85 1.8 NW 17 24 9 13 1011.8 1011.8 0.0
14/08:00pm 25.1 26.5 21.8 82 2.2 N 17 24 9 13 1010.5 1010.5 0.0
14/07:30pm 25.2 25.2 21.7 81 2.3 N 24 32 13 17 1010.0 1010.0 0.0
14/07:00pm 25.4 25.0 21.7 80 2.5 N 26 35 14 19 1009.5 1009.5 0.0
14/06:30pm 25.4 25.5 21.9 81 2.3 N 24 35 13 19 1009.0 1009.0 0.0
14/06:00pm 25.6 25.6 21.7 79 2.6 N 24 35 13 19 1008.8 1008.8 0.0
14/05:30pm 25.9 25.2 21.8 78 2.7 NNE 28 39 15 21 1008.3 1008.3 0.0
14/05:00pm 26.5 25.3 21.5 74 3.3 N 30 39 16 21 1008.2 1008.2 0.0
14/04:30pm 27.5 25.5 20.8 67 4.4 NNE 32 43 17 23 1007.9 1007.9 0.0
14/04:00pm 28.1 25.7 20.4 63 5.1 NNE 33 43 18 23 1008.1 1008.1 0.0
14/03:30pm 29.2 26.7 20.1 58 6.0 NNE 33 41 18 22 1008.0 1008.0 0.0
14/03:00pm 29.3 26.9 19.0 53 6.7 N 30 39 16 21 1008.2 1008.2 0.0
14/02:30pm 28.5 27.0 21.0 64 5.0 NNE 30 37 16 20 1008.3 1008.3 0.0
14/02:00pm 29.2 28.1 21.7 64 5.0 NNE 30 39 16 21 1008.3 1008.3 0.0
14/01:30pm 29.7 28.3 22.2 64 5.1 NNE 33 43 18 23 1008.4 1008.4 0.0
14/01:00pm 29.9 28.3 20.7 57 6.1 N 30 39 16 21 1008.9 1008.9 0.0
14/12:30pm 30.0 29.1 21.4 60 5.8 NNE 28 39 15 21 1009.3 1009.3 0.0
14/12:00pm 29.9 29.2 21.8 62 5.5 NNE 28 41 15 22 1009.9 1009.9 0.0
14/11:30am 28.7 27.6 21.0 63 5.1 N 28 37 15 20 1010.1 1010.1 0.0
14/11:00am 29.9 29.2 21.8 62 5.5 NNE 28 37 15 20 1010.3 1010.3 0.0
14/10:30am 29.3 29.4 21.8 64 5.0 NNE 24 33 13 18 1010.4 1010.4 0.0
14/10:00am 29.2 29.7 21.2 62 5.3 N 20 28 11 15 1010.6 1010.6 0.0
14/09:30am 28.4 29.0 21.4 66 4.7 N 20 30 11 16 1011.0 1011.0 0.0
14/09:00am 28.1 28.8 21.6 68 4.4 N 20 28 11 15 1011.0 1011.0 0.0
14/08:30am 27.7 27.9 21.3 68 4.3 N 22 30 12 16 1010.9 1010.9 0.0
14/08:00am 26.7 29.8 22.8 79 2.6 NW 11 20 6 11 1011.1 1011.1 0.0
14/07:30am 25.0 28.4 22.7 87 1.5 NW 9 13 5 7 1010.7 1010.7 0.0
14/07:00am 23.2 27.2 22.0 93 0.8 NW 4 7 2 4 1010.1 1010.1 0.0
14/06:30am 22.6 27.0 21.4 93 0.8 CALM 0 0 0 0 1009.7 1009.7 0.0
14/06:00am 22.8 26.1 21.4 92 0.9 NW 6 7 3 4 1009.5 1009.5 0.0
14/05:42am 23.0 26.5 21.8 93 0.8 NW 6 7 3 4 1009.4 1009.4 0.0
14/05:30am 22.8 26.2 21.6 93 0.8 NW 6 6 3 3 1009.3 1009.3 0.0
14/05:07am 23.0 26.4 22.0 94 0.7 NW 7 7 4 4 1009.0 1009.0 0.0
14/05:00am 22.9 26.2 21.9 94 0.7 WNW 7 9 4 5 1008.9 1008.9 0.0
14/04:30am 22.8 26.2 22.0 95 0.5 NW 7 9 4 5 1008.5 1008.5 0.0
14/04:00am 22.4 25.0 21.2 93 0.8 N 9 15 5 8 1008.1 1008.1 0.0
14/03:30am 22.5 25.2 21.3 93 0.8 NNW 9 11 5 6 1008.4 1008.4 0.0
14/03:00am 23.2 25.7 21.8 92 0.9 N 11 13 6 7 1008.3 1008.3 0.0
14/02:48am 23.1 25.6 21.7 92 0.9 N 11 15 6 8 1008.3 1008.3 0.0
14/02:30am 23.1 25.9 21.5 91 1.1 N 9 11 5 6 1008.5 1008.5 0.0
14/02:04am 24.0 26.1 22.4 91 1.1 N 15 20 8 11 1008.5 1008.5 0.0
14/02:00am 23.9 25.9 22.3 91 1.1 N 15 20 8 11 1008.5 1008.5 0.0
14/01:30am 23.9 25.9 22.3 91 1.1 N 15 19 8 10 1008.7 1008.7 0.0
14/01:00am 24.0 26.0 22.3 90 1.1 N 15 19 8 10 1008.9 1008.9 0.0
14/12:30am 24.2 26.3 22.5 90 1.1 N 15 19 8 10 1009.1 1009.1 0.0
14/12:00am 24.2 26.3 22.5 90 1.1 N 15 20 8 11 1009.1 1009.1 0.0
 
Date/Time
EST
Temp
°C
App
Temp
°C
Dew
Point
°C
Rel
Hum
%
Delta-T
°C
Wind Press
QNH
hPa
Press
MSL
hPa
Rain since
9am
mm
Dir  Spd
km/h
Gust
km/h
Spd
kts
Gust
kts
13/11:30pm 24.3 26.4 22.4 89 1.3 N 15 20 8 11 1009.4 1009.4 0.0
13/11:00pm 24.5 26.3 22.6 89 1.3 N 17 20 9 11 1009.7 1009.7 0.0
13/10:30pm 24.7 26.5 22.6 88 1.4 N 17 22 9 12 1009.7 1009.7 0.0
13/10:00pm 24.4 26.4 21.5 84 1.9 N 13 17 7 9 1009.5 1009.5 0.0
13/09:30pm 24.8 26.0 20.7 78 2.7 N 15 20 8 11 1009.4 1009.4 0.0
13/09:00pm 25.1 25.8 20.4 75 3.1 N 17 26 9 14 1009.3 1009.3 0.0
13/08:30pm 25.3 26.0 21.2 78 2.7 NNE 19 24 10 13 1009.0 1009.0 0.0
13/08:00pm 25.4 26.6 21.5 79 2.6 NNE 17 20 9 11 1009.0 1009.0 0.0
13/07:30pm 25.6 26.4 20.6 74 3.3 NNE 17 22 9 12 1008.5 1008.5 0.0
13/07:00pm 25.8 25.9 19.9 70 3.8 NNE 19 24 10 13 1008.0 1008.0 0.0

Other formats

Comma delimited format used in spreadsheet applications
http://www.bom.gov.au/fwo/IDQ60801/IDQ60801.95367.axf

JavaScript Object Notation format (JSON) in row-major order
http://www.bom.gov.au/fwo/IDQ60801/IDQ60801.95367.json

Data quality

Most of these data are generated automatically and are frequently updated. Quality checks on data are not normally performed. It is possible for incorrect values to appear. Refer to information at About Latest Weather Observations and please check the disclaimer before using these data.